Main page
Satellite images 15-day forecastsClimateMarine weather Cyclones Lightning AirportsFAQ Newsletter About
Weather : Europe Africa North America South America Asia Australia-Oceania Others
Languages Contact

Waddington, England

RAF

latitude: 53-10N, longitude: 000-31W, elevation: 68 m


METAR: EGXW 311850Z 17013KT CAVOK 16/12 Q1012 BLU NOSIG
TAF: missing

Time: 19:05 (19:05 UTC)

Current weather observation

The report was made 15 minutes ago, at 18:50 UTC
Wind 13 kt from the South
Temperature 16°C
Humidity 77%
Pressure 1012 hPa
Visibility 10 km or more
no clouds below 1500 m and no cumulonimbus

Change units
The information on this site is subject to a disclaimer
Weather : Europe Africa North America South America Asia Australia-Oceania Others
Satellite images 15-day forecastsClimateMarine weather Cyclones Lightning AirportsFAQ Languages Contact Newsletter About